Time;durP1;ratioP1;P1;durP2;ratioP2;P2;SDS_P1;SDS_P2;PMS_P1;PMS_P2;Temp;Humidity;BMP_temperature;BMP_pressure;BME280_temperature;BME280_humidity;BME280_pressure;Samples;Min_cycle;Max_cycle;Signal;HPM_P1;HPM_P2
2022/12/09 00:00:19;;;;;;;0.70;0.70;;;;;;;-1.93;77.59;95854.91;29373;248;63005;-57
2022/12/09 00:00:50;;;;;;;0.70;0.70;;;;;;;-1.93;77.56;95855.69;29371;290;64013;-57
2022/12/09 00:01:22;;;;;;;0.70;0.70;;;;;;;-1.92;77.46;95849.34;29373;228;63005;-57
2022/12/09 00:01:54;;;;;;;0.70;0.70;;;;;;;-1.91;77.69;95852.81;29373;331;63009;-58
2022/12/09 00:02:25;;;;;;;0.70;0.70;;;;;;;-1.91;77.55;95848.28;29371;206;64009;-57
2022/12/09 00:02:57;;;;;;;0.70;0.70;;;;;;;-1.90;77.20;95851.75;29373;323;63009;-57
2022/12/09 00:03:28;;;;;;;0.70;0.70;;;;;;;-1.90;77.22;95849.91;29373;229;63009;-56
2022/12/09 00:04:00;;;;;;;0.70;0.70;;;;;;;-1.88;77.43;95849.66;29373;210;63009;-56
2022/12/09 00:04:32;;;;;;;0.70;0.70;;;;;;;-1.87;77.31;95854.75;29371;202;64020;-56
2022/12/09 00:05:04;;;;;;;0.70;0.70;;;;;;;-1.87;76.93;95843.31;29373;226;63008;-56
2022/12/09 00:05:39;;;;;;;0.70;0.70;;;;;;;-1.85;77.15;95850.00;29373;202;63005;-56
2022/12/09 00:06:16;;;;;;;0.70;0.70;;;;;;;-1.84;76.88;95848.16;29373;211;63009;-56
2022/12/09 00:06:47;;;;;;;0.70;0.70;;;;;;;-1.84;77.05;95837.50;29373;220;63005;-57
2022/12/09 00:07:18;;;;;;;0.70;0.70;;;;;;;-1.84;76.89;95848.16;29373;218;63015;-56
2022/12/09 00:07:49;;;;;;;0.70;0.70;;;;;;;-1.86;76.87;95850.25;29373;212;63005;-56
2022/12/09 00:08:20;;;;;;;0.70;0.70;;;;;;;-1.87;77.14;95849.44;29371;197;64013;-57
2022/12/09 00:08:52;;;;;;;0.68;0.68;;;;;;;-1.87;76.99;95848.63;29373;202;63005;-56
2022/12/09 00:09:23;;;;;;;0.80;0.80;;;;;;;-1.87;76.94;95848.63;29373;211;63009;-56
2022/12/09 00:09:54;;;;;;;0.70;0.70;;;;;;;-1.88;77.27;95847.81;29373;222;63004;-56
2022/12/09 00:10:26;;;;;;;0.70;0.70;;;;;;;-1.87;76.96;95843.31;29371;220;64013;-57
2022/12/09 00:10:58;;;;;;;0.70;0.70;;;;;;;-1.87;77.39;95841.47;29371;210;64009;-56
2022/12/09 00:11:29;;;;;;;0.70;0.70;;;;;;;-1.88;77.47;95847.81;29373;225;63009;-56
2022/12/09 00:12:01;;;;;;;0.70;0.70;;;;;;;-1.89;77.49;95846.19;29373;198;63018;-56
2022/12/09 00:12:32;;;;;;;0.70;0.70;;;;;;;-1.89;77.38;95840.88;29373;221;63008;-57
2022/12/09 00:13:03;;;;;;;0.70;0.70;;;;;;;-1.89;77.58;95840.09;29373;219;63003;-56
2022/12/09 00:13:35;;;;;;;0.70;0.70;;;;;;;-1.90;77.08;95839.28;29373;250;63009;-70
2022/12/09 00:14:08;;;;;;;0.70;0.70;;;;;;;-1.91;77.51;95837.66;29373;232;63005;-56
2022/12/09 00:14:39;;;;;;;0.70;0.70;;;;;;;-1.91;77.45;95842.97;29373;228;63009;-57
2022/12/09 00:15:14;;;;;;;0.70;0.70;;;;;;;-1.90;77.27;95843.78;29371;252;64009;-57
2022/12/09 00:15:45;;;;;;;0.80;0.80;;;;;;;-1.91;77.12;95840.31;29373;218;63005;-56
2022/12/09 00:16:17;;;;;;;1.02;1.02;;;;;;;-1.91;77.17;95837.66;29373;249;63005;-56
2022/12/09 00:16:48;;;;;;;1.15;1.15;;;;;;;-1.92;77.05;95835.25;29373;218;63009;-56
2022/12/09 00:17:19;;;;;;;0.60;0.60;;;;;;;-1.94;77.59;95837.31;29373;234;63004;-67
2022/12/09 00:17:50;;;;;;;0.70;0.70;;;;;;;-1.96;77.37;95836.75;29373;216;63009;-69
2022/12/09 00:18:21;;;;;;;0.70;0.70;;;;;;;-1.97;77.29;95838.63;29373;279;63004;-57
2022/12/09 00:18:52;;;;;;;0.70;0.70;;;;;;;-1.95;77.48;95833.88;29373;226;63009;-56
2022/12/09 00:19:27;;;;;;;0.70;0.70;;;;;;;-1.94;77.50;95829.34;29371;219;64009;-55
2022/12/09 00:19:58;;;;;;;0.70;0.70;;;;;;;-1.95;77.14;95831.22;29373;226;63008;-56
2022/12/09 00:20:29;;;;;;;0.68;0.68;;;;;;;-1.95;77.29;95830.41;29373;259;63004;-56
2022/12/09 00:21:33;;;;;;;0.70;0.70;;;;;;;-2.02;77.42;95831.34;29373;252;63009;-56
2022/12/09 00:22:04;;;;;;;0.73;0.73;;;;;;;-2.06;77.70;95830.22;29373;224;63005;-56
2022/12/09 00:22:37;;;;;;;0.70;0.70;;;;;;;-2.09;77.70;95835.22;29372;217;63009;-57
2022/12/09 00:23:08;;;;;;;0.77;0.77;;;;;;;-2.11;77.95;95830.16;29373;216;63005;-56
2022/12/09 00:23:41;;;;;;;0.70;0.70;;;;;;;-2.09;77.81;95830.72;29373;237;63009;-68
2022/12/09 00:24:13;;;;;;;0.73;0.73;;;;;;;-2.09;77.59;95833.38;29371;196;64009;-56
2022/12/09 00:24:45;;;;;;;0.70;0.70;;;;;;;-2.08;77.88;95834.19;29371;242;64013;-56
2022/12/09 00:25:16;;;;;;;0.77;0.77;;;;;;;-2.09;77.92;95830.72;29373;202;63004;-70
2022/12/09 00:25:48;;;;;;;0.70;0.70;;;;;;;-2.07;77.81;95833.09;29373;247;63009;-56
2022/12/09 00:26:21;;;;;;;0.75;0.75;;;;;;;-2.06;78.06;95835.53;29371;199;64009;-56
2022/12/09 00:26:52;;;;;;;0.70;0.70;;;;;;;-2.06;78.13;95830.22;29373;244;63009;-56
2022/12/09 00:27:24;;;;;;;0.70;0.70;;;;;;;-2.05;78.31;95837.16;29373;211;63004;-56
2022/12/09 00:27:56;;;;;;;0.75;0.75;;;;;;;-2.07;77.76;95835.78;29373;204;63008;-55
2022/12/09 00:28:28;;;;;;;0.70;0.70;;;;;;;-2.06;78.26;95840.84;29373;200;63005;-71
2022/12/09 00:29:00;;;;;;;0.70;0.70;;;;;;;-2.06;77.95;95835.53;29373;202;63009;-56
2022/12/09 00:29:31;;;;;;;0.70;0.70;;;;;;;-2.06;78.17;95832.87;29373;219;63005;-56
2022/12/09 00:30:04;;;;;;;1.37;1.37;;;;;;;-2.06;77.88;95835.53;29373;242;63009;-56
2022/12/09 00:30:35;;;;;;;0.70;0.70;;;;;;;-2.06;78.11;95835.53;29373;228;63005;-57
2022/12/09 00:31:07;;;;;;;0.70;0.70;;;;;;;-2.07;77.91;95833.91;29371;251;64013;-57
2022/12/09 00:31:39;;;;;;;0.70;0.70;;;;;;;-2.06;78.20;95824.09;29373;205;63005;-57
2022/12/09 00:32:10;;;;;;;0.70;0.70;;;;;;;-2.05;77.85;95826.50;29373;263;63009;-56
2022/12/09 00:32:42;;;;;;;0.70;0.70;;;;;;;-2.05;78.05;95831.03;29373;217;63004;-56
2022/12/09 00:33:13;;;;;;;0.70;0.70;;;;;;;-2.05;78.17;95823.84;29373;197;63009;-68
2022/12/09 00:33:45;;;;;;;0.70;0.70;;;;;;;-2.05;78.07;95825.69;29373;208;63004;-56
2022/12/09 00:34:16;;;;;;;0.60;0.60;;;;;;;-2.04;77.73;95833.44;29373;209;63009;-70
2022/12/09 00:34:48;;;;;;;0.73;0.73;;;;;;;-2.03;77.67;95824.41;29371;208;64009;-56
2022/12/09 00:35:19;;;;;;;0.70;0.70;;;;;;;-2.03;77.60;95821.75;29373;199;63008;-55
2022/12/09 00:35:50;;;;;;;0.75;0.75;;;;;;;-2.02;77.60;95826.03;29373;200;63005;-56
2022/12/09 00:36:22;;;;;;;0.70;0.70;;;;;;;-2.02;77.41;95820.72;29373;206;63009;-57
2022/12/09 00:36:54;;;;;;;0.70;0.70;;;;;;;-2.00;77.46;95827.66;29373;223;63005;-55
2022/12/09 00:37:26;;;;;;;0.70;0.70;;;;;;;-2.00;77.72;95820.47;29373;203;63018;-68
2022/12/09 00:37:57;;;;;;;0.70;0.70;;;;;;;-2.00;77.78;95822.34;29371;222;64026;-56
2022/12/09 00:38:28;;;;;;;0.70;0.70;;;;;;;-2.00;77.57;95817.00;29373;280;63009;-67
2022/12/09 00:39:00;;;;;;;0.70;0.70;;;;;;;-2.05;77.34;95818.53;29373;222;63005;-57
2022/12/09 00:39:32;;;;;;;0.80;0.80;;;;;;;-2.11;78.25;95822.19;29373;211;63009;-56
2022/12/09 00:40:04;;;;;;;0.70;0.70;;;;;;;-2.14;78.07;95822.66;29373;202;63004;-56
2022/12/09 00:40:35;;;;;;;0.68;0.68;;;;;;;-2.16;77.87;95823.94;29371;231;64013;-56
2022/12/09 00:41:07;;;;;;;0.70;0.70;;;;;;;-2.18;77.92;95824.16;29373;226;63004;-56
2022/12/09 00:41:39;;;;;;;0.70;0.70;;;;;;;-2.22;77.89;95817.72;29373;247;63004;-56
2022/12/09 00:42:11;;;;;;;0.70;0.70;;;;;;;-2.23;78.06;95818.75;29373;230;63004;-56
2022/12/09 00:42:42;;;;;;;0.70;0.70;;;;;;;-2.25;78.42;95826.16;29373;196;63008;-67
2022/12/09 00:43:14;;;;;;;0.68;0.68;;;;;;;-2.26;78.41;95819.25;29373;217;63004;-56
2022/12/09 00:43:45;;;;;;;0.80;0.80;;;;;;;-2.24;78.53;95827.78;29373;233;63009;-56
2022/12/09 00:44:17;;;;;;;0.60;0.60;;;;;;;-2.23;78.62;95820.62;29373;232;63005;-56
2022/12/09 00:44:49;;;;;;;0.80;0.80;;;;;;;-2.22;78.84;95825.69;29371;223;64013;-57
2022/12/09 00:45:20;;;;;;;0.70;0.70;;;;;;;-2.21;78.83;95822.00;29373;202;63005;-70
2022/12/09 00:45:51;;;;;;;0.70;0.70;;;;;;;-2.20;79.14;95826.25;29373;233;63016;-56
2022/12/09 00:46:23;;;;;;;0.70;0.70;;;;;;;-2.20;78.86;95820.94;29373;208;63005;-56
2022/12/09 00:46:54;;;;;;;0.70;0.70;;;;;;;-2.18;78.64;95826.81;29371;257;64013;-56
2022/12/09 00:47:25;;;;;;;0.70;0.70;;;;;;;-2.17;78.58;95823.13;29373;220;63004;-56
2022/12/09 00:47:56;;;;;;;0.70;0.70;;;;;;;-2.16;78.40;95827.41;29373;224;63009;-58
2022/12/09 00:48:28;;;;;;;0.70;0.70;;;;;;;-2.15;78.42;95822.88;29373;228;63004;-56
2022/12/09 00:49:00;;;;;;;0.70;0.70;;;;;;;-2.15;78.25;95826.34;29373;206;63009;-56
2022/12/09 00:49:31;;;;;;;0.60;0.60;;;;;;;-2.13;78.29;95826.13;29371;228;64008;-70
2022/12/09 00:50:07;;;;;;;0.70;0.70;;;;;;;-2.11;78.12;95824.84;29373;224;63009;-56
2022/12/09 00:50:39;;;;;;;0.70;0.70;;;;;;;-2.11;78.09;95822.19;29373;225;63005;-56
2022/12/09 00:51:14;;;;;;;1.60;1.60;;;;;;;-2.10;78.18;95815.00;29373;219;63009;-57
2022/12/09 00:51:45;;;;;;;0.70;0.70;;;;;;;-2.10;78.19;95818.47;29371;197;64009;-70
2022/12/09 00:52:16;;;;;;;0.70;0.70;;;;;;;-2.09;78.21;95820.09;29373;249;63009;-56
2022/12/09 00:52:47;;;;;;;0.70;0.70;;;;;;;-2.09;77.94;95820.09;29373;196;63005;-55
2022/12/09 00:53:19;;;;;;;0.70;0.70;;;;;;;-2.09;78.23;95812.12;29373;218;63009;-56
2022/12/09 00:53:52;;;;;;;0.70;0.70;;;;;;;-2.09;78.23;95820.09;29373;210;63017;-71
2022/12/09 00:54:24;;;;;;;0.70;0.70;;;;;;;-2.09;77.95;95809.47;29373;228;63009;-68
2022/12/09 00:54:55;;;;;;;0.75;0.75;;;;;;;-2.08;77.91;95816.34;29373;216;63004;-68
2022/12/09 00:55:27;;;;;;;0.70;0.70;;;;;;;-2.07;78.33;95817.16;29373;217;63009;-71
2022/12/09 00:55:58;;;;;;;0.70;0.70;;;;;;;-2.06;78.41;95816.94;29373;216;63004;-56
2022/12/09 00:56:30;;;;;;;0.70;0.70;;;;;;;-2.06;78.23;95819.59;29371;214;64013;-56
2022/12/09 00:57:01;;;;;;;0.65;0.65;;;;;;;-2.06;78.34;95814.25;29371;202;64008;-57
2022/12/09 00:57:32;;;;;;;0.70;0.70;;;;;;;-2.06;77.92;95819.59;29373;214;63009;-57
2022/12/09 00:58:07;;;;;;;0.70;0.70;;;;;;;-2.05;77.81;95815.87;29373;225;63005;-56
2022/12/09 00:58:38;;;;;;;0.70;0.70;;;;;;;-2.05;77.83;95812.41;29373;225;63009;-56
2022/12/09 00:59:09;;;;;;;0.70;0.70;;;;;;;-2.05;77.65;95821.19;29373;203;63015;-68
2022/12/09 00:59:41;;;;;;;0.70;0.70;;;;;;;-2.04;77.79;95822.81;29371;217;64013;-70
2022/12/09 01:00:13;;;;;;;0.70;0.70;;;;;;;-2.05;77.81;95820.38;29373;222;63017;-57
2022/12/09 01:00:45;;;;;;;0.80;0.80;;;;;;;-2.06;77.90;95811.59;29373;222;63009;-56
2022/12/09 01:01:16;;;;;;;0.70;0.70;;;;;;;-2.11;77.89;95811.53;29373;212;63011;-56
2022/12/09 01:01:47;;;;;;;0.80;0.80;;;;;;;-2.08;78.19;95821.66;29373;285;63009;-56
2022/12/09 01:02:19;;;;;;;0.70;0.70;;;;;;;-2.09;78.42;95820.09;29373;227;63004;-68
2022/12/09 01:02:50;;;;;;;0.70;0.70;;;;;;;-2.08;78.59;95826.22;29373;228;63009;-68
2022/12/09 01:03:22;;;;;;;0.70;0.70;;;;;;;-2.08;78.74;95820.91;29373;197;63004;-69
2022/12/09 01:03:53;;;;;;;0.70;0.70;;;;;;;-2.09;79.04;95824.59;29373;203;63009;-56
2022/12/09 01:04:25;;;;;;;0.70;0.70;;;;;;;-2.09;79.07;95820.09;29371;215;64008;-57
2022/12/09 01:04:56;;;;;;;0.70;0.70;;;;;;;-2.09;78.78;95825.41;29371;213;64013;-68
2022/12/09 01:05:28;;;;;;;0.70;0.70;;;;;;;-2.09;79.00;95820.09;29373;251;63005;-67
2022/12/09 01:05:59;;;;;;;0.70;0.70;;;;;;;-2.10;78.93;95823.78;29373;225;63014;-56
2022/12/09 01:06:30;;;;;;;0.70;0.70;;;;;;;-2.11;79.36;95814.22;29373;229;63010;-55
2022/12/09 01:07:02;;;;;;;0.70;0.70;;;;;;;-2.11;79.16;95824.84;29373;211;63009;-56
2022/12/09 01:07:36;;;;;;;0.80;0.80;;;;;;;-2.12;79.32;95820.56;29373;212;63005;-70
2022/12/09 01:08:08;;;;;;;0.95;0.95;;;;;;;-2.12;78.94;95820.56;29373;209;63019;-56
2022/12/09 01:08:40;;;;;;;0.80;0.80;;;;;;;-2.13;78.83;95823.47;29373;209;63005;-56
2022/12/09 01:09:12;;;;;;;0.70;0.70;;;;;;;-2.13;79.00;95823.47;29371;214;64013;-56
2022/12/09 01:09:43;;;;;;;0.70;0.70;;;;;;;-2.14;79.17;95817.34;29371;205;64009;-56
2022/12/09 01:10:15;;;;;;;0.70;0.70;;;;;;;-2.14;79.06;95817.34;29373;230;63019;-70
2022/12/09 01:10:47;;;;;;;0.70;0.70;;;;;;;-2.14;79.00;95821.84;29373;251;63004;-55
2022/12/09 01:11:23;;;;;;;0.70;0.70;;;;;;;-2.14;78.91;95822.66;29371;205;64013;-56
2022/12/09 01:11:54;;;;;;;0.70;0.70;;;;;;;-2.14;79.27;95814.69;29373;226;63008;-56
2022/12/09 01:12:25;;;;;;;0.70;0.70;;;;;;;-2.12;79.51;95827.72;29373;269;63019;-57
2022/12/09 01:12:57;;;;;;;0.70;0.70;;;;;;;-2.14;79.33;95817.34;29373;197;63005;-56
2022/12/09 01:13:31;;;;;;;0.70;0.70;;;;;;;-2.12;79.34;95820.56;29372;211;64009;-56
2022/12/09 01:14:03;;;;;;;0.70;0.70;;;;;;;-2.11;79.02;95821.38;29373;228;63005;-56
2022/12/09 01:14:38;;;;;;;0.75;0.75;;;;;;;-2.10;79.10;95815.81;29371;245;64013;-56
2022/12/09 01:15:10;;;;;;;0.70;0.70;;;;;;;-2.07;78.74;95822.47;29373;264;63005;-56
2022/12/09 01:15:42;;;;;;;0.70;0.70;;;;;;;-2.05;78.62;95821.19;29371;213;64013;-68
2022/12/09 01:16:17;;;;;;;0.70;0.70;;;;;;;-2.02;78.57;95825.22;29373;211;63005;-68
2022/12/09 01:16:48;;;;;;;0.70;0.70;;;;;;;-1.99;78.09;95822.09;29371;216;64013;-56
2022/12/09 01:17:19;;;;;;;0.70;0.70;;;;;;;-1.98;78.16;95821.03;29371;207;64009;-56
2022/12/09 01:17:50;;;;;;;0.70;0.70;;;;;;;-1.96;77.96;95823.47;29373;202;63009;-56
2022/12/09 01:18:21;;;;;;;0.70;0.70;;;;;;;-1.95;77.79;95822.41;29373;218;63004;-68
2022/12/09 01:18:58;;;;;;;0.70;0.70;;;;;;;-1.93;77.76;95820.34;29373;223;63019;-56
2022/12/09 01:19:29;;;;;;;0.70;0.70;;;;;;;-1.93;77.70;95823.78;29371;225;64008;-70
2022/12/09 01:20:02;;;;;;;0.70;0.70;;;;;;;-1.91;77.54;95820.91;29373;199;63008;-56
2022/12/09 01:20:34;;;;;;;0.70;0.70;;;;;;;-1.91;77.43;95826.22;29373;222;63005;-56
2022/12/09 01:21:05;;;;;;;0.60;0.60;;;;;;;-1.90;77.53;95820.66;29373;203;63009;-67
2022/12/09 01:21:40;;;;;;;0.70;0.70;;;;;;;-1.89;77.42;95824.13;29373;199;63005;-67
2022/12/09 01:22:11;;;;;;;0.70;0.70;;;;;;;-1.88;77.04;95821.22;29371;231;64013;-57
2022/12/09 01:22:45;;;;;;;0.70;0.70;;;;;;;-1.87;76.92;95822.03;29373;290;63005;-56
2022/12/09 01:23:16;;;;;;;0.70;0.70;;;;;;;-1.86;76.84;95815.69;29373;202;63009;-56
2022/12/09 01:23:48;;;;;;;0.70;0.70;;;;;;;-1.85;77.10;95817.28;29373;247;63005;-57
2022/12/09 01:24:20;;;;;;;0.70;0.70;;;;;;;-1.83;76.86;95823.16;29373;234;63009;-56
2022/12/09 01:24:51;;;;;;;0.70;0.70;;;;;;;-1.81;76.67;95821.09;29371;213;64009;-69
2022/12/09 01:25:22;;;;;;;0.70;0.70;;;;;;;-1.80;76.27;95822.69;29373;212;63009;-57
2022/12/09 01:25:54;;;;;;;0.70;0.70;;;;;;;-1.78;75.88;95809.97;29371;245;64009;-59
2022/12/09 01:26:26;;;;;;;0.70;0.70;;;;;;;-1.77;75.66;95811.56;29373;208;63009;-56
2022/12/09 01:26:57;;;;;;;0.70;0.70;;;;;;;-1.76;75.74;95819.31;29373;205;63008;-56
2022/12/09 01:27:30;;;;;;;0.70;0.70;;;;;;;-1.74;75.73;95805.78;29373;202;63008;-56
2022/12/09 01:28:03;;;;;;;0.70;0.70;;;;;;;-1.73;75.65;95807.34;29373;234;63005;-55
2022/12/09 01:28:36;;;;;;;0.70;0.70;;;;;;;-1.73;75.35;95816.16;29373;206;63009;-56
2022/12/09 01:29:07;;;;;;;0.70;0.70;;;;;;;-1.71;75.39;95810.59;29373;263;63005;-56
2022/12/09 01:29:41;;;;;;;0.70;0.70;;;;;;;-1.71;74.86;95807.94;29373;211;63009;-56
2022/12/09 01:30:15;;;;;;;0.70;0.70;;;;;;;-1.70;74.90;95812.19;29371;224;64009;-56
2022/12/09 01:30:47;;;;;;;0.70;0.70;;;;;;;-1.71;74.68;95807.94;29371;210;64013;-67
2022/12/09 01:31:22;;;;;;;0.75;0.75;;;;;;;-1.76;74.81;95810.53;29373;216;63008;-68
2022/12/09 01:31:54;;;;;;;0.70;0.70;;;;;;;-1.81;74.95;95810.44;29373;220;63009;-56
2022/12/09 01:32:26;;;;;;;0.70;0.70;;;;;;;-1.87;74.97;95806.88;29373;229;63004;-56
2022/12/09 01:32:57;;;;;;;0.70;0.70;;;;;;;-1.90;75.22;95806.56;29373;210;63009;-57
2022/12/09 01:33:28;;;;;;;0.70;0.70;;;;;;;-1.93;75.21;95807.84;29373;209;63004;-69
2022/12/09 01:33:59;;;;;;;0.70;0.70;;;;;;;-1.94;75.91;95810.75;29371;252;64013;-56
2022/12/09 01:34:30;;;;;;;0.60;0.60;;;;;;;-1.96;76.23;95815.50;29373;239;63004;-69
2022/12/09 01:35:03;;;;;;;0.70;0.70;;;;;;;-1.97;76.60;95811.22;29373;219;63008;-56
2022/12/09 01:35:38;;;;;;;0.70;0.70;;;;;;;-1.98;76.43;95817.59;29373;236;63005;-57
2022/12/09 01:36:14;;;;;;;0.70;0.70;;;;;;;-2.00;76.80;95814.34;29373;212;63009;-55
2022/12/09 01:36:47;;;;;;;0.70;0.70;;;;;;;-2.04;76.73;95817.50;29371;214;64001;-67
2022/12/09 01:37:18;;;;;;;0.70;0.70;;;;;;;-2.06;76.75;95814.25;29373;220;63009;-56
2022/12/09 01:37:50;;;;;;;0.80;0.80;;;;;;;-2.09;77.04;95814.78;29373;200;63005;-56
2022/12/09 01:38:22;;;;;;;0.70;0.70;;;;;;;-2.14;76.92;95814.69;29373;216;63009;-56
2022/12/09 01:38:54;;;;;;;0.70;0.70;;;;;;;-2.17;76.92;95807.19;29373;222;63005;-57
2022/12/09 01:39:26;;;;;;;0.68;0.68;;;;;;;-2.18;77.25;95816.19;29373;267;63009;-57
2022/12/09 01:39:57;;;;;;;0.70;0.70;;;;;;;-2.17;77.55;95817.81;29373;208;63004;-57
2022/12/09 01:40:28;;;;;;;0.88;0.88;;;;;;;-2.17;77.48;95812.50;29373;243;63009;-57
2022/12/09 01:40:59;;;;;;;0.70;0.70;;;;;;;-2.15;77.62;95821.03;29373;198;63004;-57
2022/12/09 01:41:30;;;;;;;0.70;0.70;;;;;;;-2.15;77.40;95810.41;29373;204;63009;-56
2022/12/09 01:42:03;;;;;;;0.70;0.70;;;;;;;-2.13;77.66;95812.84;29371;228;64008;-69
2022/12/09 01:42:35;;;;;;;0.70;0.70;;;;;;;-2.13;77.46;95813.62;29371;225;64013;-57
2022/12/09 01:43:17;;;;;;;0.70;0.70;;;;;;;-2.13;77.29;95810.16;29373;237;63019;-56
2022/12/09 01:44:26;;;;;;;0.80;0.80;;;;;;;-2.12;77.49;95809.94;29373;266;63009;-57
2022/12/09 01:45:37;;;;;;;0.80;0.80;;;;;;;-2.11;77.49;95811.53;29371;202;64009;-56
2022/12/09 01:46:09;;;;;;;0.75;0.75;;;;;;;-2.12;77.19;95815.25;29373;244;63005;-57
2022/12/09 01:46:43;;;;;;;4.37;3.42;;;;;;;-2.12;77.36;95809.13;29372;198;63009;-56
2022/12/09 01:47:22;;;;;;;0.70;0.70;;;;;;;-2.13;77.42;95808.31;29373;271;63004;-57
2022/12/09 01:48:02;;;;;;;0.70;0.70;;;;;;;-2.13;77.19;95805.66;29373;207;63009;-56
2022/12/09 01:48:44;;;;;;;0.70;0.70;;;;;;;-2.13;77.31;95803.00;29373;283;63004;-56
2022/12/09 01:49:23;;;;;;;0.70;0.70;;;;;;;-2.14;77.12;95806.72;29373;244;63008;-57
2022/12/09 01:49:54;;;;;;;0.70;0.70;;;;;;;-2.13;77.09;95804.84;29371;278;64008;-56
2022/12/09 01:50:28;;;;;;;0.68;0.68;;;;;;;-2.13;76.85;95808.31;29373;231;63009;-56
2022/12/09 01:51:17;;;;;;;0.80;0.80;;;;;;;-2.14;76.82;95801.41;29373;251;63005;-69
2022/12/09 01:52:00;;;;;;;0.70;0.70;;;;;;;-2.12;77.27;95804.62;29373;202;63017;-57
2022/12/09 01:52:31;;;;;;;0.62;0.62;;;;;;;-2.12;77.19;95809.94;29373;246;63017;-56
2022/12/09 01:53:04;;;;;;;0.70;0.70;;;;;;;-2.12;77.07;95801.97;29373;253;63009;-56
2022/12/09 01:53:39;;;;;;;0.70;0.70;;;;;;;-2.11;76.89;95802.78;29373;214;63005;-56
2022/12/09 01:54:10;;;;;;;0.80;0.80;;;;;;;-2.11;76.89;95806.22;29373;220;63009;-56
2022/12/09 01:54:44;;;;;;;0.70;0.70;;;;;;;-2.10;76.87;95805.19;29373;210;63004;-68
2022/12/09 01:55:17;;;;;;;0.73;0.73;;;;;;;-2.09;76.94;95804.16;29371;229;64013;-57
2022/12/09 01:55:49;;;;;;;0.70;0.70;;;;;;;-2.06;76.29;95803.63;29373;199;63004;-57
2022/12/09 01:56:33;;;;;;;0.70;0.70;;;;;;;-2.07;76.48;95806.53;29371;215;64013;-57
2022/12/09 01:57:04;;;;;;;0.70;0.70;;;;;;;-2.06;76.22;95805.47;29373;230;63004;-56
2022/12/09 01:57:37;;;;;;;0.70;0.70;;;;;;;-2.07;76.32;95803.88;29373;260;63009;-57
2022/12/09 01:58:08;;;;;;;0.70;0.70;;;;;;;-2.08;76.52;95800.41;29373;268;63005;-57
2022/12/09 01:58:40;;;;;;;0.70;0.70;;;;;;;-2.07;76.36;95790.59;29371;280;64003;-56
2022/12/09 01:59:14;;;;;;;0.70;0.70;;;;;;;-2.08;76.67;95797.75;29373;246;63005;-56
2022/12/09 01:59:46;;;;;;;0.70;0.70;;;;;;;-2.09;76.38;95801.50;29372;219;63009;-56
2022/12/09 02:00:18;;;;;;;0.70;0.70;;;;;;;-2.10;76.36;95802.53;29373;220;63005;-56
2022/12/09 02:00:49;;;;;;;0.70;0.70;;;;;;;-2.09;76.61;95793.50;29373;251;63009;-69
2022/12/09 02:01:21;;;;;;;0.70;0.70;;;;;;;-2.09;76.23;95800.69;29371;221;64009;-56
2022/12/09 02:01:57;;;;;;;0.73;0.73;;;;;;;-2.09;76.51;95787.38;29373;202;63014;-57
2022/12/09 02:02:31;;;;;;;0.73;0.73;;;;;;;-2.08;76.51;95796.97;29373;229;63004;-56
2022/12/09 02:03:05;;;;;;;0.70;0.70;;;;;;;-2.08;76.53;95789.00;29373;207;63009;-56
2022/12/09 02:03:37;;;;;;;0.77;0.77;;;;;;;-2.08;76.51;95786.34;29373;198;63017;-68
2022/12/09 02:04:08;;;;;;;0.70;0.70;;;;;;;-2.09;76.45;95788.19;29373;219;63008;-57
2022/12/09 02:04:44;;;;;;;0.80;0.80;;;;;;;-2.08;76.24;95787.13;29373;222;63005;-56
2022/12/09 02:05:16;;;;;;;0.70;0.70;;;;;;;-2.10;75.97;95778.59;29373;197;63009;-68
2022/12/09 02:05:48;;;;;;;0.70;0.70;;;;;;;-2.11;76.20;95778.84;29373;247;63005;-57
2022/12/09 02:06:20;;;;;;;0.70;0.70;;;;;;;-2.12;76.22;95778.03;29371;220;64013;-56
2022/12/09 02:06:51;;;;;;;0.70;0.70;;;;;;;-2.11;75.74;95771.69;29371;227;64009;-56
2022/12/09 02:07:23;;;;;;;0.68;0.68;;;;;;;-2.09;75.31;95776.75;29373;233;63009;-56
2022/12/09 02:07:54;;;;;;;0.70;0.70;;;;;;;-2.09;75.41;95774.91;29373;202;63005;-57
2022/12/09 02:08:29;;;;;;;0.70;0.70;;;;;;;-2.06;75.35;95777.06;29373;297;63013;-56
2022/12/09 02:09:00;;;;;;;0.70;0.70;;;;;;;-2.05;75.25;95777.84;29373;206;63004;-57
2022/12/09 02:09:32;;;;;;;0.70;0.70;;;;;;;-2.04;75.45;95777.63;29373;213;63009;-57
2022/12/09 02:10:11;;;;;;;0.70;0.70;;;;;;;-2.03;75.47;95770.44;29373;216;63010;-56
2022/12/09 02:11:32;;;;;;;0.75;0.75;;;;;;;-2.00;75.28;95769.16;29373;209;63009;-67
2022/12/09 02:12:14;;;;;;;0.70;0.70;;;;;;;-1.98;75.07;95767.88;29371;225;64013;-66
2022/12/09 02:13:18;;;;;;;0.70;0.70;;;;;;;-1.99;74.93;95762.81;29371;266;64009;-56
2022/12/09 02:14:21;;;;;;;0.70;0.70;;;;;;;-2.02;75.23;95756.13;29373;222;63009;-57
2022/12/09 02:15:06;;;;;;;0.70;0.70;;;;;;;-2.02;75.27;95762.25;29373;202;63000;-56
2022/12/09 02:15:46;;;;;;;0.70;0.70;;;;;;;-2.02;75.01;95758.78;29373;248;63009;-56
2022/12/09 02:16:23;;;;;;;0.70;0.70;;;;;;;-2.04;75.05;95759.00;29395;217;63005;-67
2022/12/09 02:17:38;;;;;;;0.70;0.70;;;;;;;-2.05;75.35;95757.41;29371;229;64013;-56
2022/12/09 02:18:21;;;;;;;0.70;0.70;;;;;;;-2.08;75.60;95757.88;29373;202;63004;-57
2022/12/09 02:19:30;;;;;;;0.70;0.70;;;;;;;-2.06;75.96;95755.78;29373;231;63009;-57
2022/12/09 02:20:55;;;;;;;0.70;0.70;;;;;;;-2.06;75.82;95761.09;29373;232;63005;-56
2022/12/09 02:21:43;;;;;;;0.70;0.70;;;;;;;-2.09;75.61;95756.31;29373;231;63009;-56
2022/12/09 02:22:20;;;;;;;0.73;0.73;;;;;;;-2.13;76.04;95754.38;29371;219;64009;-56
2022/12/09 02:23:10;;;;;;;0.80;0.80;;;;;;;-2.21;76.65;95758.22;29373;231;63009;-56
2022/12/09 02:24:42;;;;;;;0.70;0.70;;;;;;;-2.27;76.92;95759.16;29371;234;64009;-55
2022/12/09 02:25:48;;;;;;;0.80;0.80;;;;;;;-2.33;77.09;95760.12;29371;210;64013;-57
2022/12/09 02:27:07;;;;;;;0.70;0.70;;;;;;;-2.32;77.21;95756.41;29371;279;64009;-57
2022/12/09 02:28:09;;;;;;;0.70;0.70;;;;;;;-2.31;77.02;95760.69;29373;217;63009;-56
2022/12/09 02:29:24;;;;;;;0.80;0.80;;;;;;;-2.30;77.20;95757.00;29395;216;63008;-57
2022/12/09 02:30:50;;;;;;;0.80;0.80;;;;;;;-2.33;77.20;95765.44;29395;205;63009;-57
2022/12/09 02:31:58;;;;;;;0.73;0.73;;;;;;;-2.37;77.07;95759.78;29371;224;64009;-56
2022/12/09 02:33:09;;;;;;;0.80;0.80;;;;;;;-2.38;77.21;95766.16;29373;292;63004;-56
2022/12/09 02:34:05;;;;;;;0.70;0.70;;;;;;;-2.37;77.37;95764.28;29373;204;63009;-57
2022/12/09 02:34:43;;;;;;;0.80;0.80;;;;;;;-2.36;77.13;95765.91;29373;215;63008;-56
2022/12/09 02:35:25;;;;;;;1.17;1.17;;;;;;;-2.36;77.13;95765.91;29373;202;63005;-57
2022/12/09 02:36:04;;;;;;;0.70;0.70;;;;;;;-2.38;77.38;95760.84;29371;205;64014;-57
2022/12/09 02:36:54;;;;;;;0.70;0.70;;;;;;;-2.39;77.51;95764.53;29371;228;64009;-56
2022/12/09 02:37:37;;;;;;;0.70;0.70;;;;;;;-2.39;77.51;95758.41;29373;210;63009;-56
2022/12/09 02:38:18;;;;;;;0.70;0.70;;;;;;;-2.42;77.61;95759.69;29373;223;63005;-57
2022/12/09 02:38:52;;;;;;;0.80;0.80;;;;;;;-2.42;77.89;95761.53;29395;202;63009;-57
2022/12/09 02:39:41;;;;;;;0.80;0.80;;;;;;;-2.42;77.71;95761.53;29395;217;63004;-56
2022/12/09 02:40:40;;;;;;;0.80;0.80;;;;;;;-2.42;77.71;95756.22;29371;199;64013;-56
2022/12/09 02:41:32;;;;;;;0.80;0.80;;;;;;;-2.38;78.08;95762.69;29373;222;63004;-61
2022/12/09 02:42:05;;;;;;;;;;;;;;;-2.38;77.95;95762.69;29974;983;28000;-57
2022/12/09 02:42:38;;;;;;;0.80;0.80;;;;;;;-2.37;78.05;95764.28;29400;197;63009;-57
2022/12/09 02:43:11;;;;;;;0.75;0.75;;;;;;;-2.37;77.98;95758.97;29373;234;63005;-56
2022/12/09 02:43:50;;;;;;;0.70;0.70;;;;;;;-2.38;78.01;95762.69;29373;243;63009;-57
2022/12/09 02:44:24;;;;;;;0.70;0.70;;;;;;;-2.37;78.38;95758.97;29373;221;63005;-58
2022/12/09 02:44:57;;;;;;;0.70;0.70;;;;;;;-2.38;78.11;95763.50;29373;229;63014;-57
2022/12/09 02:45:30;;;;;;;0.80;0.80;;;;;;;-2.38;78.40;95760.03;29371;241;64009;-57
2022/12/09 02:46:04;;;;;;;0.70;0.70;;;;;;;-2.39;78.25;95761.06;29373;243;63009;-57
2022/12/09 02:46:36;;;;;;;0.70;0.70;;;;;;;-2.41;78.36;95765.81;29373;232;63004;-57
2022/12/09 02:47:12;;;;;;;0.70;0.70;;;;;;;-2.42;78.66;95758.88;29371;226;64013;-57
2022/12/09 02:47:49;;;;;;;0.77;0.77;;;;;;;-2.41;78.41;95757.84;29373;227;63004;-56
2022/12/09 02:48:24;;;;;;;0.75;0.75;;;;;;;-2.39;78.34;95758.41;29373;284;63009;-56
2022/12/09 02:48:58;;;;;;;0.70;0.70;;;;;;;-2.40;78.23;95757.59;29371;273;64009;-56
2022/12/09 02:49:31;;;;;;;0.80;0.80;;;;;;;-2.38;78.14;95758.19;29371;230;64013;-56
2022/12/09 02:50:08;;;;;;;0.70;0.70;;;;;;;-2.37;77.89;95748.34;29373;257;63005;-56